sensor_id;sensor_type;location;lat;lon;timestamp;P1;durP1;ratioP1;P2;durP2;ratioP2
60312;SDS011;46158;52.850;6.970;2023-05-29T00:00:08;9.57;;;2.63;;
60312;SDS011;46158;52.850;6.970;2023-05-29T00:02:34;11.40;;;2.58;;
60312;SDS011;46158;52.850;6.970;2023-05-29T00:05:00;7.75;;;2.40;;
60312;SDS011;46158;52.850;6.970;2023-05-29T00:07:28;9.35;;;2.85;;
60312;SDS011;46158;52.850;6.970;2023-05-29T00:09:55;9.57;;;2.67;;
60312;SDS011;46158;52.850;6.970;2023-05-29T00:12:21;7.15;;;2.50;;
60312;SDS011;46158;52.850;6.970;2023-05-29T00:14:48;9.50;;;2.53;;
60312;SDS011;46158;52.850;6.970;2023-05-29T00:17:14;7.88;;;2.40;;
60312;SDS011;46158;52.850;6.970;2023-05-29T00:19:40;9.60;;;2.42;;
60312;SDS011;46158;52.850;6.970;2023-05-29T00:22:07;8.75;;;2.30;;
60312;SDS011;46158;52.850;6.970;2023-05-29T00:24:33;8.82;;;2.50;;
60312;SDS011;46158;52.850;6.970;2023-05-29T00:26:59;7.60;;;2.17;;
60312;SDS011;46158;52.850;6.970;2023-05-29T00:29:26;8.07;;;2.50;;
60312;SDS011;46158;52.850;6.970;2023-05-29T00:31:52;7.22;;;2.35;;
60312;SDS011;46158;52.850;6.970;2023-05-29T00:34:18;9.55;;;2.50;;
60312;SDS011;46158;52.850;6.970;2023-05-29T00:36:44;8.85;;;2.40;;
60312;SDS011;46158;52.850;6.970;2023-05-29T00:39:11;10.75;;;2.60;;
60312;SDS011;46158;52.850;6.970;2023-05-29T00:41:37;7.22;;;2.30;;
60312;SDS011;46158;52.850;6.970;2023-05-29T00:44:03;10.00;;;2.60;;
60312;SDS011;46158;52.850;6.970;2023-05-29T00:46:29;10.27;;;2.40;;
60312;SDS011;46158;52.850;6.970;2023-05-29T00:48:56;11.48;;;2.45;;
60312;SDS011;46158;52.850;6.970;2023-05-29T00:51:22;9.35;;;2.35;;
60312;SDS011;46158;52.850;6.970;2023-05-29T00:53:50;9.57;;;2.70;;
60312;SDS011;46158;52.850;6.970;2023-05-29T00:56:17;9.45;;;2.47;;
60312;SDS011;46158;52.850;6.970;2023-05-29T00:58:46;9.07;;;2.45;;
60312;SDS011;46158;52.850;6.970;2023-05-29T01:01:19;9.82;;;2.42;;
60312;SDS011;46158;52.850;6.970;2023-05-29T01:03:46;9.60;;;2.42;;
60312;SDS011;46158;52.850;6.970;2023-05-29T01:06:13;10.10;;;2.35;;
60312;SDS011;46158;52.850;6.970;2023-05-29T01:08:39;7.60;;;2.40;;
60312;SDS011;46158;52.850;6.970;2023-05-29T01:11:08;10.07;;;2.47;;
60312;SDS011;46158;52.850;6.970;2023-05-29T01:13:37;11.00;;;2.58;;
60312;SDS011;46158;52.850;6.970;2023-05-29T01:16:13;7.65;;;2.53;;
60312;SDS011;46158;52.850;6.970;2023-05-29T01:25:21;9.00;;;2.35;;
60312;SDS011;46158;52.850;6.970;2023-05-29T01:27:51;9.02;;;2.33;;
60312;SDS011;46158;52.850;6.970;2023-05-29T01:30:19;9.80;;;2.47;;
60312;SDS011;46158;52.850;6.970;2023-05-29T01:32:47;6.60;;;2.20;;
60312;SDS011;46158;52.850;6.970;2023-05-29T01:35:13;7.30;;;2.30;;
60312;SDS011;46158;52.850;6.970;2023-05-29T01:37:39;10.13;;;2.30;;
60312;SDS011;46158;52.850;6.970;2023-05-29T01:40:06;6.65;;;2.30;;
60312;SDS011;46158;52.850;6.970;2023-05-29T01:42:32;9.98;;;2.53;;
60312;SDS011;46158;52.850;6.970;2023-05-29T01:44:58;6.50;;;2.25;;
60312;SDS011;46158;52.850;6.970;2023-05-29T01:47:25;5.45;;;2.30;;
60312;SDS011;46158;52.850;6.970;2023-05-29T01:49:51;7.22;;;2.10;;
60312;SDS011;46158;52.850;6.970;2023-05-29T01:52:18;9.60;;;2.25;;
60312;SDS011;46158;52.850;6.970;2023-05-29T01:54:44;9.05;;;2.42;;
60312;SDS011;46158;52.850;6.970;2023-05-29T01:57:10;10.40;;;2.20;;
60312;SDS011;46158;52.850;6.970;2023-05-29T01:59:36;9.13;;;2.60;;
60312;SDS011;46158;52.850;6.970;2023-05-29T02:02:07;8.32;;;2.50;;
60312;SDS011;46158;52.850;6.970;2023-05-29T02:06:58;7.50;;;2.38;;
60312;SDS011;46158;52.850;6.970;2023-05-29T02:09:24;7.25;;;2.25;;
60312;SDS011;46158;52.850;6.970;2023-05-29T02:11:51;8.25;;;2.30;;
60312;SDS011;46158;52.850;6.970;2023-05-29T02:14:16;8.07;;;2.22;;
60312;SDS011;46158;52.850;6.970;2023-05-29T02:16:42;6.70;;;2.30;;
60312;SDS011;46158;52.850;6.970;2023-05-29T02:19:09;7.70;;;2.25;;
60312;SDS011;46158;52.850;6.970;2023-05-29T02:21:38;9.30;;;2.40;;
60312;SDS011;46158;52.850;6.970;2023-05-29T02:24:06;9.98;;;2.30;;
60312;SDS011;46158;52.850;6.970;2023-05-29T02:26:32;8.10;;;2.30;;
60312;SDS011;46158;52.850;6.970;2023-05-29T02:28:58;8.73;;;2.30;;
60312;SDS011;46158;52.850;6.970;2023-05-29T02:31:24;7.55;;;2.20;;
60312;SDS011;46158;52.850;6.970;2023-05-29T02:33:49;8.25;;;2.30;;
60312;SDS011;46158;52.850;6.970;2023-05-29T02:36:15;8.05;;;2.13;;
60312;SDS011;46158;52.850;6.970;2023-05-29T02:38:41;8.73;;;2.47;;
60312;SDS011;46158;52.850;6.970;2023-05-29T02:41:07;11.32;;;2.20;;
60312;SDS011;46158;52.850;6.970;2023-05-29T02:43:32;11.00;;;2.40;;
60312;SDS011;46158;52.850;6.970;2023-05-29T02:45:58;10.10;;;2.30;;
60312;SDS011;46158;52.850;6.970;2023-05-29T02:48:24;11.35;;;2.60;;
60312;SDS011;46158;52.850;6.970;2023-05-29T02:50:51;9.13;;;2.30;;
60312;SDS011;46158;52.850;6.970;2023-05-29T02:53:17;8.50;;;2.42;;
60312;SDS011;46158;52.850;6.970;2023-05-29T02:55:43;5.45;;;2.10;;
60312;SDS011;46158;52.850;6.970;2023-05-29T02:58:09;9.90;;;2.28;;
60312;SDS011;46158;52.850;6.970;2023-05-29T03:00:36;8.10;;;2.20;;
60312;SDS011;46158;52.850;6.970;2023-05-29T03:03:02;10.82;;;2.40;;
60312;SDS011;46158;52.850;6.970;2023-05-29T03:05:30;10.57;;;2.42;;
60312;SDS011;46158;52.850;6.970;2023-05-29T03:07:56;9.77;;;2.38;;
60312;SDS011;46158;52.850;6.970;2023-05-29T03:10:22;6.45;;;1.90;;
60312;SDS011;46158;52.850;6.970;2023-05-29T03:12:48;7.63;;;2.10;;
60312;SDS011;46158;52.850;6.970;2023-05-29T03:15:17;8.13;;;2.28;;
60312;SDS011;46158;52.850;6.970;2023-05-29T03:17:46;6.30;;;1.92;;
60312;SDS011;46158;52.850;6.970;2023-05-29T03:20:11;7.32;;;2.15;;
60312;SDS011;46158;52.850;6.970;2023-05-29T03:22:38;9.07;;;2.10;;
60312;SDS011;46158;52.850;6.970;2023-05-29T03:25:04;8.90;;;2.30;;
60312;SDS011;46158;52.850;6.970;2023-05-29T03:27:32;8.05;;;2.10;;
60312;SDS011;46158;52.850;6.970;2023-05-29T03:29:58;9.02;;;2.30;;
60312;SDS011;46158;52.850;6.970;2023-05-29T03:32:25;7.18;;;2.20;;
60312;SDS011;46158;52.850;6.970;2023-05-29T03:34:50;10.05;;;2.42;;
60312;SDS011;46158;52.850;6.970;2023-05-29T03:37:19;8.40;;;2.25;;
60312;SDS011;46158;52.850;6.970;2023-05-29T03:39:44;8.75;;;2.10;;
60312;SDS011;46158;52.850;6.970;2023-05-29T03:42:10;9.43;;;2.45;;
60312;SDS011;46158;52.850;6.970;2023-05-29T03:44:36;9.10;;;2.40;;
60312;SDS011;46158;52.850;6.970;2023-05-29T03:47:02;8.15;;;2.30;;
60312;SDS011;46158;52.850;6.970;2023-05-29T03:49:27;7.60;;;2.28;;
60312;SDS011;46158;52.850;6.970;2023-05-29T03:51:53;6.80;;;2.13;;
60312;SDS011;46158;52.850;6.970;2023-05-29T03:54:19;5.43;;;1.92;;
60312;SDS011;46158;52.850;6.970;2023-05-29T03:56:44;8.57;;;2.40;;
60312;SDS011;46158;52.850;6.970;2023-05-29T03:59:10;7.38;;;2.15;;
60312;SDS011;46158;52.850;6.970;2023-05-29T04:01:36;7.15;;;2.10;;
60312;SDS011;46158;52.850;6.970;2023-05-29T04:04:02;10.05;;;2.17;;
60312;SDS011;46158;52.850;6.970;2023-05-29T04:06:27;7.07;;;2.25;;
60312;SDS011;46158;52.850;6.970;2023-05-29T04:08:53;7.97;;;2.20;;
60312;SDS011;46158;52.850;6.970;2023-05-29T04:11:19;9.23;;;2.38;;
60312;SDS011;46158;52.850;6.970;2023-05-29T04:13:46;6.57;;;2.05;;
60312;SDS011;46158;52.850;6.970;2023-05-29T04:16:12;9.18;;;2.38;;
60312;SDS011;46158;52.850;6.970;2023-05-29T04:18:39;6.40;;;2.13;;
60312;SDS011;46158;52.850;6.970;2023-05-29T04:21:05;6.75;;;2.33;;
60312;SDS011;46158;52.850;6.970;2023-05-29T04:23:31;6.22;;;2.17;;
60312;SDS011;46158;52.850;6.970;2023-05-29T04:25:59;6.97;;;2.20;;
60312;SDS011;46158;52.850;6.970;2023-05-29T04:28:30;6.35;;;2.00;;
60312;SDS011;46158;52.850;6.970;2023-05-29T04:30:56;9.82;;;2.22;;
60312;SDS011;46158;52.850;6.970;2023-05-29T04:33:22;7.35;;;2.10;;
60312;SDS011;46158;52.850;6.970;2023-05-29T04:35:49;10.65;;;2.63;;
60312;SDS011;46158;52.850;6.970;2023-05-29T04:38:15;10.20;;;2.28;;
60312;SDS011;46158;52.850;6.970;2023-05-29T04:40:42;7.57;;;2.22;;
60312;SDS011;46158;52.850;6.970;2023-05-29T04:43:10;7.70;;;2.20;;
60312;SDS011;46158;52.850;6.970;2023-05-29T04:45:52;11.65;;;2.60;;
60312;SDS011;46158;52.850;6.970;2023-05-29T04:48:24;10.00;;;2.35;;
60312;SDS011;46158;52.850;6.970;2023-05-29T04:50:50;7.72;;;2.38;;
60312;SDS011;46158;52.850;6.970;2023-05-29T04:53:16;10.02;;;2.40;;
60312;SDS011;46158;52.850;6.970;2023-05-29T04:55:44;7.22;;;2.20;;
60312;SDS011;46158;52.850;6.970;2023-05-29T04:58:12;7.88;;;2.17;;
60312;SDS011;46158;52.850;6.970;2023-05-29T05:00:38;7.55;;;2.10;;
60312;SDS011;46158;52.850;6.970;2023-05-29T05:03:25;7.95;;;2.28;;
60312;SDS011;46158;52.850;6.970;2023-05-29T05:05:51;8.80;;;2.30;;
60312;SDS011;46158;52.850;6.970;2023-05-29T05:08:17;11.85;;;2.90;;
60312;SDS011;46158;52.850;6.970;2023-05-29T05:10:43;10.07;;;2.40;;
60312;SDS011;46158;52.850;6.970;2023-05-29T05:13:09;7.90;;;1.98;;
60312;SDS011;46158;52.850;6.970;2023-05-29T05:15:38;8.15;;;2.22;;
60312;SDS011;46158;52.850;6.970;2023-05-29T05:18:07;12.00;;;2.47;;
60312;SDS011;46158;52.850;6.970;2023-05-29T05:20:42;11.48;;;2.42;;
60312;SDS011;46158;52.850;6.970;2023-05-29T05:23:16;9.38;;;2.30;;
60312;SDS011;46158;52.850;6.970;2023-05-29T05:25:41;8.23;;;2.00;;
60312;SDS011;46158;52.850;6.970;2023-05-29T05:28:08;7.15;;;2.17;;
60312;SDS011;46158;52.850;6.970;2023-05-29T05:30:38;8.13;;;2.17;;
60312;SDS011;46158;52.850;6.970;2023-05-29T05:33:09;8.38;;;2.10;;
60312;SDS011;46158;52.850;6.970;2023-05-29T05:35:36;10.02;;;2.47;;
60312;SDS011;46158;52.850;6.970;2023-05-29T05:38:05;8.80;;;2.30;;
60312;SDS011;46158;52.850;6.970;2023-05-29T05:40:40;9.23;;;2.25;;
60312;SDS011;46158;52.850;6.970;2023-05-29T05:43:10;9.05;;;2.28;;
60312;SDS011;46158;52.850;6.970;2023-05-29T05:45:35;8.70;;;2.35;;
60312;SDS011;46158;52.850;6.970;2023-05-29T05:48:06;6.55;;;2.10;;
60312;SDS011;46158;52.850;6.970;2023-05-29T05:50:33;5.18;;;2.20;;
60312;SDS011;46158;52.850;6.970;2023-05-29T05:53:01;8.65;;;2.40;;
60312;SDS011;46158;52.850;6.970;2023-05-29T05:55:36;9.20;;;2.20;;
60312;SDS011;46158;52.850;6.970;2023-05-29T05:58:02;8.52;;;2.20;;
60312;SDS011;46158;52.850;6.970;2023-05-29T06:00:28;8.02;;;2.33;;
60312;SDS011;46158;52.850;6.970;2023-05-29T06:02:54;9.30;;;2.38;;
60312;SDS011;46158;52.850;6.970;2023-05-29T06:05:20;8.60;;;2.25;;
60312;SDS011;46158;52.850;6.970;2023-05-29T06:07:48;7.47;;;2.20;;
60312;SDS011;46158;52.850;6.970;2023-05-29T06:10:14;10.88;;;2.42;;
60312;SDS011;46158;52.850;6.970;2023-05-29T06:12:40;11.68;;;2.40;;
60312;SDS011;46158;52.850;6.970;2023-05-29T06:15:06;10.02;;;2.47;;
60312;SDS011;46158;52.850;6.970;2023-05-29T06:17:32;12.25;;;2.45;;
60312;SDS011;46158;52.850;6.970;2023-05-29T06:19:58;8.27;;;2.38;;
60312;SDS011;46158;52.850;6.970;2023-05-29T06:22:25;10.02;;;2.35;;
60312;SDS011;46158;52.850;6.970;2023-05-29T06:24:51;7.35;;;2.42;;
60312;SDS011;46158;52.850;6.970;2023-05-29T06:27:20;7.57;;;2.43;;
60312;SDS011;46158;52.850;6.970;2023-05-29T06:29:51;10.80;;;2.58;;
60312;SDS011;46158;52.850;6.970;2023-05-29T06:32:17;9.88;;;2.50;;
60312;SDS011;46158;52.850;6.970;2023-05-29T06:34:43;8.70;;;2.20;;
60312;SDS011;46158;52.850;6.970;2023-05-29T06:37:12;9.07;;;2.60;;
60312;SDS011;46158;52.850;6.970;2023-05-29T06:39:39;7.70;;;2.22;;
60312;SDS011;46158;52.850;6.970;2023-05-29T06:42:07;10.70;;;2.65;;
60312;SDS011;46158;52.850;6.970;2023-05-29T06:44:33;10.82;;;2.40;;
60312;SDS011;46158;52.850;6.970;2023-05-29T06:46:59;8.95;;;2.22;;
60312;SDS011;46158;52.850;6.970;2023-05-29T06:49:25;9.18;;;2.50;;
60312;SDS011;46158;52.850;6.970;2023-05-29T06:51:50;8.65;;;2.42;;
60312;SDS011;46158;52.850;6.970;2023-05-29T06:54:16;10.73;;;2.60;;
60312;SDS011;46158;52.850;6.970;2023-05-29T06:56:42;9.48;;;2.22;;
60312;SDS011;46158;52.850;6.970;2023-05-29T06:59:08;8.93;;;2.75;;
60312;SDS011;46158;52.850;6.970;2023-05-29T07:01:34;8.02;;;2.30;;
60312;SDS011;46158;52.850;6.970;2023-05-29T07:04:00;12.55;;;2.40;;
60312;SDS011;46158;52.850;6.970;2023-05-29T07:06:26;10.10;;;2.70;;
60312;SDS011;46158;52.850;6.970;2023-05-29T07:08:52;9.77;;;2.75;;
60312;SDS011;46158;52.850;6.970;2023-05-29T07:11:17;8.75;;;2.28;;
60312;SDS011;46158;52.850;6.970;2023-05-29T07:13:43;6.93;;;2.40;;
60312;SDS011;46158;52.850;6.970;2023-05-29T07:16:09;7.90;;;2.70;;
60312;SDS011;46158;52.850;6.970;2023-05-29T07:18:34;8.35;;;2.45;;
60312;SDS011;46158;52.850;6.970;2023-05-29T07:21:00;10.25;;;2.60;;
60312;SDS011;46158;52.850;6.970;2023-05-29T07:23:26;12.10;;;2.65;;
60312;SDS011;46158;52.850;6.970;2023-05-29T07:25:52;10.40;;;2.53;;
60312;SDS011;46158;52.850;6.970;2023-05-29T07:28:18;10.07;;;2.50;;
60312;SDS011;46158;52.850;6.970;2023-05-29T07:30:43;8.40;;;2.40;;
60312;SDS011;46158;52.850;6.970;2023-05-29T07:33:09;13.95;;;2.50;;
60312;SDS011;46158;52.850;6.970;2023-05-29T07:35:35;9.77;;;2.42;;
60312;SDS011;46158;52.850;6.970;2023-05-29T07:38:01;8.88;;;2.45;;
60312;SDS011;46158;52.850;6.970;2023-05-29T07:40:27;9.23;;;2.45;;
60312;SDS011;46158;52.850;6.970;2023-05-29T07:42:52;11.48;;;2.75;;
60312;SDS011;46158;52.850;6.970;2023-05-29T07:45:18;10.35;;;2.45;;
60312;SDS011;46158;52.850;6.970;2023-05-29T07:47:43;11.52;;;2.80;;
60312;SDS011;46158;52.850;6.970;2023-05-29T07:50:10;11.45;;;2.80;;
60312;SDS011;46158;52.850;6.970;2023-05-29T07:52:36;11.27;;;2.70;;
60312;SDS011;46158;52.850;6.970;2023-05-29T07:55:02;12.02;;;2.85;;
60312;SDS011;46158;52.850;6.970;2023-05-29T07:57:28;12.68;;;2.65;;
60312;SDS011;46158;52.850;6.970;2023-05-29T07:59:54;12.32;;;2.60;;
60312;SDS011;46158;52.850;6.970;2023-05-29T08:02:19;9.27;;;2.58;;
60312;SDS011;46158;52.850;6.970;2023-05-29T08:04:46;10.65;;;2.90;;
60312;SDS011;46158;52.850;6.970;2023-05-29T08:07:11;10.85;;;3.03;;
60312;SDS011;46158;52.850;6.970;2023-05-29T08:09:37;11.32;;;2.58;;
60312;SDS011;46158;52.850;6.970;2023-05-29T08:12:03;12.63;;;2.95;;
60312;SDS011;46158;52.850;6.970;2023-05-29T08:14:30;10.02;;;2.42;;
60312;SDS011;46158;52.850;6.970;2023-05-29T08:16:56;10.73;;;2.70;;
60312;SDS011;46158;52.850;6.970;2023-05-29T08:19:23;10.68;;;2.78;;
60312;SDS011;46158;52.850;6.970;2023-05-29T08:21:48;12.10;;;2.90;;
60312;SDS011;46158;52.850;6.970;2023-05-29T08:24:14;12.13;;;3.20;;
60312;SDS011;46158;52.850;6.970;2023-05-29T08:26:40;11.65;;;2.78;;
60312;SDS011;46158;52.850;6.970;2023-05-29T08:29:08;12.90;;;2.80;;
60312;SDS011;46158;52.850;6.970;2023-05-29T08:31:34;8.35;;;2.65;;
60312;SDS011;46158;52.850;6.970;2023-05-29T08:34:00;11.48;;;2.92;;
60312;SDS011;46158;52.850;6.970;2023-05-29T08:36:27;11.35;;;2.70;;
60312;SDS011;46158;52.850;6.970;2023-05-29T08:38:52;13.60;;;2.97;;
60312;SDS011;46158;52.850;6.970;2023-05-29T08:41:21;13.32;;;2.85;;
60312;SDS011;46158;52.850;6.970;2023-05-29T08:43:58;9.20;;;2.78;;
60312;SDS011;46158;52.850;6.970;2023-05-29T08:46:26;8.50;;;2.80;;
60312;SDS011;46158;52.850;6.970;2023-05-29T08:48:52;13.15;;;2.70;;
60312;SDS011;46158;52.850;6.970;2023-05-29T08:51:22;10.55;;;2.80;;
60312;SDS011;46158;52.850;6.970;2023-05-29T08:53:54;8.20;;;2.65;;
60312;SDS011;46158;52.850;6.970;2023-05-29T08:56:21;9.70;;;2.70;;
60312;SDS011;46158;52.850;6.970;2023-05-29T08:58:47;9.65;;;2.70;;
60312;SDS011;46158;52.850;6.970;2023-05-29T09:01:14;13.50;;;2.80;;
60312;SDS011;46158;52.850;6.970;2023-05-29T09:03:40;11.93;;;2.80;;
60312;SDS011;46158;52.850;6.970;2023-05-29T09:06:07;10.30;;;3.00;;
60312;SDS011;46158;52.850;6.970;2023-05-29T09:08:33;12.98;;;3.00;;
60312;SDS011;46158;52.850;6.970;2023-05-29T09:10:59;13.93;;;2.95;;
60312;SDS011;46158;52.850;6.970;2023-05-29T09:13:26;10.98;;;2.88;;
60312;SDS011;46158;52.850;6.970;2023-05-29T09:15:59;11.13;;;2.90;;
60312;SDS011;46158;52.850;6.970;2023-05-29T09:18:28;12.20;;;3.33;;
60312;SDS011;46158;52.850;6.970;2023-05-29T09:20:58;9.30;;;2.55;;
60312;SDS011;46158;52.850;6.970;2023-05-29T09:23:25;9.85;;;2.78;;
60312;SDS011;46158;52.850;6.970;2023-05-29T09:25:52;13.18;;;3.10;;
60312;SDS011;46158;52.850;6.970;2023-05-29T09:28:20;8.07;;;2.40;;
60312;SDS011;46158;52.850;6.970;2023-05-29T09:30:46;8.43;;;2.60;;
60312;SDS011;46158;52.850;6.970;2023-05-29T09:33:13;10.13;;;2.50;;
60312;SDS011;46158;52.850;6.970;2023-05-29T09:35:47;9.07;;;2.65;;
60312;SDS011;46158;52.850;6.970;2023-05-29T09:38:14;9.32;;;2.55;;
60312;SDS011;46158;52.850;6.970;2023-05-29T09:40:44;11.43;;;2.67;;
60312;SDS011;46158;52.850;6.970;2023-05-29T09:43:15;7.57;;;2.58;;
60312;SDS011;46158;52.850;6.970;2023-05-29T09:45:48;9.77;;;2.70;;
60312;SDS011;46158;52.850;6.970;2023-05-29T09:48:15;13.82;;;3.10;;
60312;SDS011;46158;52.850;6.970;2023-05-29T09:50:47;9.75;;;2.70;;
60312;SDS011;46158;52.850;6.970;2023-05-29T09:55:47;11.25;;;2.85;;
60312;SDS011;46158;52.850;6.970;2023-05-29T09:58:14;11.07;;;2.92;;
60312;SDS011;46158;52.850;6.970;2023-05-29T10:00:43;12.10;;;2.78;;
60312;SDS011;46158;52.850;6.970;2023-05-29T10:03:10;9.60;;;2.70;;
60312;SDS011;46158;52.850;6.970;2023-05-29T10:05:41;10.27;;;2.67;;
60312;SDS011;46158;52.850;6.970;2023-05-29T10:08:08;12.43;;;2.80;;
60312;SDS011;46158;52.850;6.970;2023-05-29T10:10:37;13.05;;;2.80;;
60312;SDS011;46158;52.850;6.970;2023-05-29T10:13:41;13.30;;;2.85;;
60312;SDS011;46158;52.850;6.970;2023-05-29T10:16:13;9.52;;;2.75;;
60312;SDS011;46158;52.850;6.970;2023-05-29T10:18:42;12.05;;;2.88;;
60312;SDS011;46158;52.850;6.970;2023-05-29T10:21:14;10.73;;;3.03;;
60312;SDS011;46158;52.850;6.970;2023-05-29T10:23:42;10.43;;;2.63;;
60312;SDS011;46158;52.850;6.970;2023-05-29T10:26:21;10.73;;;2.83;;
60312;SDS011;46158;52.850;6.970;2023-05-29T10:29:14;13.20;;;2.60;;
60312;SDS011;46158;52.850;6.970;2023-05-29T10:34:47;8.20;;;2.30;;
60312;SDS011;46158;52.850;6.970;2023-05-29T10:37:37;12.32;;;2.83;;
60312;SDS011;46158;52.850;6.970;2023-05-29T10:40:06;9.98;;;2.92;;
60312;SDS011;46158;52.850;6.970;2023-05-29T10:53:09;13.55;;;2.90;;
60312;SDS011;46158;52.850;6.970;2023-05-29T10:55:37;12.30;;;2.92;;
60312;SDS011;46158;52.850;6.970;2023-05-29T10:58:07;11.55;;;2.88;;
60312;SDS011;46158;52.850;6.970;2023-05-29T11:00:40;11.95;;;3.00;;
60312;SDS011;46158;52.850;6.970;2023-05-29T11:03:11;12.32;;;3.13;;
60312;SDS011;46158;52.850;6.970;2023-05-29T11:06:00;13.55;;;3.00;;
60312;SDS011;46158;52.850;6.970;2023-05-29T11:11:14;13.95;;;3.00;;
60312;SDS011;46158;52.850;6.970;2023-05-29T11:13:40;8.93;;;2.83;;
60312;SDS011;46158;52.850;6.970;2023-05-29T11:19:04;11.48;;;2.75;;
60312;SDS011;46158;52.850;6.970;2023-05-29T11:24:09;10.50;;;2.58;;
60312;SDS011;46158;52.850;6.970;2023-05-29T11:26:45;10.18;;;2.67;;
60312;SDS011;46158;52.850;6.970;2023-05-29T11:29:11;9.07;;;2.60;;
60312;SDS011;46158;52.850;6.970;2023-05-29T11:31:38;8.57;;;2.50;;
60312;SDS011;46158;52.850;6.970;2023-05-29T11:34:05;13.73;;;3.08;;
60312;SDS011;46158;52.850;6.970;2023-05-29T11:36:37;10.98;;;2.65;;
60312;SDS011;46158;52.850;6.970;2023-05-29T11:39:03;12.95;;;2.95;;
60312;SDS011;46158;52.850;6.970;2023-05-29T11:41:29;13.52;;;3.10;;
60312;SDS011;46158;52.850;6.970;2023-05-29T11:44:02;11.00;;;2.70;;
60312;SDS011;46158;52.850;6.970;2023-05-29T11:46:32;12.10;;;2.70;;
60312;SDS011;46158;52.850;6.970;2023-05-29T11:48:59;10.90;;;2.80;;
60312;SDS011;46158;52.850;6.970;2023-05-29T11:51:26;12.63;;;2.97;;
60312;SDS011;46158;52.850;6.970;2023-05-29T11:53:52;12.95;;;2.70;;
60312;SDS011;46158;52.850;6.970;2023-05-29T11:56:23;13.63;;;2.95;;
60312;SDS011;46158;52.850;6.970;2023-05-29T11:58:50;13.20;;;2.78;;
60312;SDS011;46158;52.850;6.970;2023-05-29T12:01:20;11.60;;;3.13;;
60312;SDS011;46158;52.850;6.970;2023-05-29T12:03:46;13.25;;;3.20;;
60312;SDS011;46158;52.850;6.970;2023-05-29T12:06:12;12.30;;;3.10;;
60312;SDS011;46158;52.850;6.970;2023-05-29T12:08:38;12.15;;;3.13;;
60312;SDS011;46158;52.850;6.970;2023-05-29T12:11:04;9.77;;;2.58;;
60312;SDS011;46158;52.850;6.970;2023-05-29T12:13:31;9.20;;;2.70;;
60312;SDS011;46158;52.850;6.970;2023-05-29T12:15:57;10.13;;;2.78;;
60312;SDS011;46158;52.850;6.970;2023-05-29T12:18:26;12.90;;;2.80;;
60312;SDS011;46158;52.850;6.970;2023-05-29T12:20:59;13.35;;;2.97;;
60312;SDS011;46158;52.850;6.970;2023-05-29T12:23:27;10.95;;;2.92;;
60312;SDS011;46158;52.850;6.970;2023-05-29T12:25:53;11.13;;;2.58;;
60312;SDS011;46158;52.850;6.970;2023-05-29T12:28:20;11.40;;;2.40;;
60312;SDS011;46158;52.850;6.970;2023-05-29T12:30:46;9.20;;;2.47;;
60312;SDS011;46158;52.850;6.970;2023-05-29T12:33:29;10.35;;;2.70;;
60312;SDS011;46158;52.850;6.970;2023-05-29T12:36:04;13.05;;;2.72;;
60312;SDS011;46158;52.850;6.970;2023-05-29T12:38:47;12.95;;;2.90;;
60312;SDS011;46158;52.850;6.970;2023-05-29T12:43:56;10.80;;;2.58;;
60312;SDS011;46158;52.850;6.970;2023-05-29T12:46:25;9.38;;;2.72;;
60312;SDS011;46158;52.850;6.970;2023-05-29T12:48:52;9.55;;;2.53;;
60312;SDS011;46158;52.850;6.970;2023-05-29T12:51:23;9.05;;;2.63;;
60312;SDS011;46158;52.850;6.970;2023-05-29T12:53:52;11.05;;;2.40;;
60312;SDS011;46158;52.850;6.970;2023-05-29T12:56:20;11.13;;;2.53;;
60312;SDS011;46158;52.850;6.970;2023-05-29T12:58:51;10.10;;;2.58;;
60312;SDS011;46158;52.850;6.970;2023-05-29T13:01:17;10.05;;;2.47;;
60312;SDS011;46158;52.850;6.970;2023-05-29T13:03:43;9.90;;;2.72;;
60312;SDS011;46158;52.850;6.970;2023-05-29T13:06:09;9.80;;;2.60;;
60312;SDS011;46158;52.850;6.970;2023-05-29T13:08:35;9.63;;;2.70;;
60312;SDS011;46158;52.850;6.970;2023-05-29T13:11:01;10.77;;;2.75;;
60312;SDS011;46158;52.850;6.970;2023-05-29T13:13:27;9.70;;;2.67;;
60312;SDS011;46158;52.850;6.970;2023-05-29T13:15:53;9.13;;;2.40;;
60312;SDS011;46158;52.850;6.970;2023-05-29T13:18:19;10.90;;;2.70;;
60312;SDS011;46158;52.850;6.970;2023-05-29T13:20:45;9.50;;;2.58;;
60312;SDS011;46158;52.850;6.970;2023-05-29T13:23:10;13.20;;;2.67;;
60312;SDS011;46158;52.850;6.970;2023-05-29T13:25:36;12.32;;;2.90;;
60312;SDS011;46158;52.850;6.970;2023-05-29T13:28:02;11.77;;;2.85;;
60312;SDS011;46158;52.850;6.970;2023-05-29T13:30:28;9.80;;;2.40;;
60312;SDS011;46158;52.850;6.970;2023-05-29T13:32:54;10.27;;;3.00;;
60312;SDS011;46158;52.850;6.970;2023-05-29T13:35:20;12.57;;;2.67;;
60312;SDS011;46158;52.850;6.970;2023-05-29T13:37:46;12.15;;;2.75;;
60312;SDS011;46158;52.850;6.970;2023-05-29T13:40:12;9.05;;;2.40;;
60312;SDS011;46158;52.850;6.970;2023-05-29T13:42:39;10.13;;;2.80;;
60312;SDS011;46158;52.850;6.970;2023-05-29T13:45:05;10.48;;;2.63;;
60312;SDS011;46158;52.850;6.970;2023-05-29T13:47:32;15.15;;;3.03;;
60312;SDS011;46158;52.850;6.970;2023-05-29T13:49:58;11.52;;;2.70;;
60312;SDS011;46158;52.850;6.970;2023-05-29T13:52:25;12.77;;;2.72;;
60312;SDS011;46158;52.850;6.970;2023-05-29T13:54:51;9.57;;;2.70;;
60312;SDS011;46158;52.850;6.970;2023-05-29T13:57:17;9.93;;;2.50;;
60312;SDS011;46158;52.850;6.970;2023-05-29T13:59:43;9.63;;;2.70;;
60312;SDS011;46158;52.850;6.970;2023-05-29T14:02:08;13.02;;;2.63;;
60312;SDS011;46158;52.850;6.970;2023-05-29T14:04:34;13.05;;;3.03;;
60312;SDS011;46158;52.850;6.970;2023-05-29T14:07:00;10.65;;;2.78;;
60312;SDS011;46158;52.850;6.970;2023-05-29T14:09:26;10.40;;;2.63;;
60312;SDS011;46158;52.850;6.970;2023-05-29T14:11:56;11.63;;;2.65;;
60312;SDS011;46158;52.850;6.970;2023-05-29T14:14:24;9.65;;;2.50;;
60312;SDS011;46158;52.850;6.970;2023-05-29T14:16:53;11.40;;;2.70;;
60312;SDS011;46158;52.850;6.970;2023-05-29T14:19:19;10.30;;;2.47;;
60312;SDS011;46158;52.850;6.970;2023-05-29T14:21:48;12.55;;;2.70;;
60312;SDS011;46158;52.850;6.970;2023-05-29T14:24:16;13.88;;;2.83;;
60312;SDS011;46158;52.850;6.970;2023-05-29T14:26:43;9.07;;;2.58;;
60312;SDS011;46158;52.850;6.970;2023-05-29T14:29:12;9.13;;;2.45;;
60312;SDS011;46158;52.850;6.970;2023-05-29T14:31:38;9.85;;;2.65;;
60312;SDS011;46158;52.850;6.970;2023-05-29T14:34:05;9.90;;;2.50;;
60312;SDS011;46158;52.850;6.970;2023-05-29T14:36:34;9.88;;;2.40;;
60312;SDS011;46158;52.850;6.970;2023-05-29T14:39:01;12.25;;;2.88;;
60312;SDS011;46158;52.850;6.970;2023-05-29T14:41:30;12.35;;;2.50;;
60312;SDS011;46158;52.850;6.970;2023-05-29T14:43:56;6.80;;;2.42;;
60312;SDS011;46158;52.850;6.970;2023-05-29T14:46:23;10.35;;;2.40;;
60312;SDS011;46158;52.850;6.970;2023-05-29T14:48:56;9.00;;;2.53;;
60312;SDS011;46158;52.850;6.970;2023-05-29T14:51:25;11.50;;;2.83;;
60312;SDS011;46158;52.850;6.970;2023-05-29T14:53:54;6.70;;;2.20;;
60312;SDS011;46158;52.850;6.970;2023-05-29T14:56:20;8.95;;;2.33;;
60312;SDS011;46158;52.850;6.970;2023-05-29T14:58:46;11.38;;;2.60;;
60312;SDS011;46158;52.850;6.970;2023-05-29T15:01:13;11.65;;;2.60;;
60312;SDS011;46158;52.850;6.970;2023-05-29T15:03:40;10.95;;;2.38;;
60312;SDS011;46158;52.850;6.970;2023-05-29T15:06:06;10.57;;;2.50;;
60312;SDS011;46158;52.850;6.970;2023-05-29T15:08:37;10.13;;;2.50;;
60312;SDS011;46158;52.850;6.970;2023-05-29T15:11:12;11.20;;;2.75;;
60312;SDS011;46158;52.850;6.970;2023-05-29T15:13:40;9.27;;;2.55;;
60312;SDS011;46158;52.850;6.970;2023-05-29T15:16:06;11.40;;;2.60;;
60312;SDS011;46158;52.850;6.970;2023-05-29T15:18:32;9.00;;;2.53;;